sensor_id;sensor_type;location;lat;lon;timestamp;P1;durP1;ratioP1;P2;durP2;ratioP2
8247;SDS011;4164;49.844;8.830;2022-08-19T00:00:12;21.33;;;18.37;;
8247;SDS011;4164;49.844;8.830;2022-08-19T00:02:38;21.57;;;19.23;;
8247;SDS011;4164;49.844;8.830;2022-08-19T00:05:04;22.03;;;17.23;;
8247;SDS011;4164;49.844;8.830;2022-08-19T00:07:30;20.30;;;18.17;;
8247;SDS011;4164;49.844;8.830;2022-08-19T00:09:56;22.30;;;18.40;;
8247;SDS011;4164;49.844;8.830;2022-08-19T00:12:21;24.00;;;19.27;;
8247;SDS011;4164;49.844;8.830;2022-08-19T00:14:47;21.37;;;18.57;;
8247;SDS011;4164;49.844;8.830;2022-08-19T00:17:12;23.87;;;18.83;;
8247;SDS011;4164;49.844;8.830;2022-08-19T00:19:38;21.97;;;19.07;;
8247;SDS011;4164;49.844;8.830;2022-08-19T00:22:05;22.73;;;18.80;;
8247;SDS011;4164;49.844;8.830;2022-08-19T00:24:33;21.57;;;19.13;;
8247;SDS011;4164;49.844;8.830;2022-08-19T00:26:59;24.40;;;19.23;;
8247;SDS011;4164;49.844;8.830;2022-08-19T00:29:27;22.57;;;19.47;;
8247;SDS011;4164;49.844;8.830;2022-08-19T00:31:53;24.10;;;18.93;;
8247;SDS011;4164;49.844;8.830;2022-08-19T00:34:19;22.77;;;19.97;;
8247;SDS011;4164;49.844;8.830;2022-08-19T00:36:46;24.23;;;20.73;;
8247;SDS011;4164;49.844;8.830;2022-08-19T00:39:13;25.33;;;19.20;;
8247;SDS011;4164;49.844;8.830;2022-08-19T00:41:40;24.03;;;19.60;;
8247;SDS011;4164;49.844;8.830;2022-08-19T00:46:35;25.97;;;19.83;;
8247;SDS011;4164;49.844;8.830;2022-08-19T00:49:05;25.20;;;20.53;;
8247;SDS011;4164;49.844;8.830;2022-08-19T00:51:39;24.73;;;19.87;;
8247;SDS011;4164;49.844;8.830;2022-08-19T00:54:06;24.30;;;19.23;;
8247;SDS011;4164;49.844;8.830;2022-08-19T00:56:32;26.30;;;20.50;;
8247;SDS011;4164;49.844;8.830;2022-08-19T00:58:58;27.57;;;20.67;;
8247;SDS011;4164;49.844;8.830;2022-08-19T01:01:26;25.20;;;19.33;;
8247;SDS011;4164;49.844;8.830;2022-08-19T01:03:52;28.57;;;20.73;;
8247;SDS011;4164;49.844;8.830;2022-08-19T01:06:18;24.47;;;19.43;;
8247;SDS011;4164;49.844;8.830;2022-08-19T01:08:43;25.80;;;20.80;;
8247;SDS011;4164;49.844;8.830;2022-08-19T01:11:09;25.77;;;21.20;;
8247;SDS011;4164;49.844;8.830;2022-08-19T01:13:37;25.90;;;20.37;;
8247;SDS011;4164;49.844;8.830;2022-08-19T01:16:04;26.57;;;19.93;;
8247;SDS011;4164;49.844;8.830;2022-08-19T01:18:35;23.87;;;19.07;;
8247;SDS011;4164;49.844;8.830;2022-08-19T01:21:08;23.67;;;18.40;;
8247;SDS011;4164;49.844;8.830;2022-08-19T01:23:43;22.77;;;18.83;;
8247;SDS011;4164;49.844;8.830;2022-08-19T01:26:11;25.77;;;18.97;;
8247;SDS011;4164;49.844;8.830;2022-08-19T01:28:43;24.73;;;19.30;;
8247;SDS011;4164;49.844;8.830;2022-08-19T01:31:12;27.23;;;20.17;;
8247;SDS011;4164;49.844;8.830;2022-08-19T01:33:40;25.57;;;19.60;;
8247;SDS011;4164;49.844;8.830;2022-08-19T01:36:10;26.93;;;20.37;;
8247;SDS011;4164;49.844;8.830;2022-08-19T01:38:40;24.87;;;19.17;;
8247;SDS011;4164;49.844;8.830;2022-08-19T01:41:08;28.00;;;19.37;;
8247;SDS011;4164;49.844;8.830;2022-08-19T01:43:35;25.97;;;18.67;;
8247;SDS011;4164;49.844;8.830;2022-08-19T01:46:02;22.63;;;17.93;;
8247;SDS011;4164;49.844;8.830;2022-08-19T01:48:32;24.63;;;19.17;;
8247;SDS011;4164;49.844;8.830;2022-08-19T01:50:59;23.80;;;18.87;;
8247;SDS011;4164;49.844;8.830;2022-08-19T01:53:25;30.27;;;20.37;;
8247;SDS011;4164;49.844;8.830;2022-08-19T01:55:50;23.83;;;19.20;;
8247;SDS011;4164;49.844;8.830;2022-08-19T01:58:17;25.73;;;19.53;;
8247;SDS011;4164;49.844;8.830;2022-08-19T02:00:45;26.37;;;19.33;;
8247;SDS011;4164;49.844;8.830;2022-08-19T02:03:12;27.83;;;19.40;;
8247;SDS011;4164;49.844;8.830;2022-08-19T02:05:38;24.33;;;19.23;;
8247;SDS011;4164;49.844;8.830;2022-08-19T02:08:04;26.33;;;20.17;;
8247;SDS011;4164;49.844;8.830;2022-08-19T02:10:30;23.20;;;18.40;;
8247;SDS011;4164;49.844;8.830;2022-08-19T02:12:57;30.23;;;19.83;;
8247;SDS011;4164;49.844;8.830;2022-08-19T02:15:22;24.47;;;19.27;;
8247;SDS011;4164;49.844;8.830;2022-08-19T02:17:49;24.87;;;19.93;;
8247;SDS011;4164;49.844;8.830;2022-08-19T02:20:15;25.27;;;19.97;;
8247;SDS011;4164;49.844;8.830;2022-08-19T02:22:41;22.73;;;19.07;;
8247;SDS011;4164;49.844;8.830;2022-08-19T02:25:08;25.83;;;18.80;;
8247;SDS011;4164;49.844;8.830;2022-08-19T02:27:39;23.83;;;19.17;;
8247;SDS011;4164;49.844;8.830;2022-08-19T02:30:05;26.13;;;19.50;;
8247;SDS011;4164;49.844;8.830;2022-08-19T02:32:33;20.93;;;17.97;;
8247;SDS011;4164;49.844;8.830;2022-08-19T02:34:58;27.47;;;20.73;;
8247;SDS011;4164;49.844;8.830;2022-08-19T02:37:24;24.60;;;18.87;;
8247;SDS011;4164;49.844;8.830;2022-08-19T02:40:08;23.10;;;18.77;;
8247;SDS011;4164;49.844;8.830;2022-08-19T02:42:34;23.23;;;19.10;;
8247;SDS011;4164;49.844;8.830;2022-08-19T02:44:59;22.80;;;19.07;;
8247;SDS011;4164;49.844;8.830;2022-08-19T02:47:25;24.13;;;19.17;;
8247;SDS011;4164;49.844;8.830;2022-08-19T02:49:50;23.33;;;18.67;;
8247;SDS011;4164;49.844;8.830;2022-08-19T02:52:16;24.30;;;19.47;;
8247;SDS011;4164;49.844;8.830;2022-08-19T02:54:42;25.67;;;19.67;;
8247;SDS011;4164;49.844;8.830;2022-08-19T02:57:08;22.60;;;18.93;;
8247;SDS011;4164;49.844;8.830;2022-08-19T02:59:34;25.10;;;19.30;;
8247;SDS011;4164;49.844;8.830;2022-08-19T03:02:00;24.10;;;19.90;;
8247;SDS011;4164;49.844;8.830;2022-08-19T03:04:25;28.60;;;21.27;;
8247;SDS011;4164;49.844;8.830;2022-08-19T03:06:51;25.07;;;19.43;;
8247;SDS011;4164;49.844;8.830;2022-08-19T03:09:17;24.00;;;19.87;;
8247;SDS011;4164;49.844;8.830;2022-08-19T03:11:44;26.03;;;19.37;;
8247;SDS011;4164;49.844;8.830;2022-08-19T03:14:10;25.63;;;18.87;;
8247;SDS011;4164;49.844;8.830;2022-08-19T03:16:44;23.90;;;19.57;;
8247;SDS011;4164;49.844;8.830;2022-08-19T03:19:12;24.57;;;19.60;;
8247;SDS011;4164;49.844;8.830;2022-08-19T03:21:38;25.20;;;18.87;;
8247;SDS011;4164;49.844;8.830;2022-08-19T03:24:05;25.70;;;18.93;;
8247;SDS011;4164;49.844;8.830;2022-08-19T03:26:33;23.47;;;19.07;;
8247;SDS011;4164;49.844;8.830;2022-08-19T03:29:03;24.27;;;18.23;;
8247;SDS011;4164;49.844;8.830;2022-08-19T03:31:29;25.40;;;18.97;;
8247;SDS011;4164;49.844;8.830;2022-08-19T03:33:56;26.40;;;20.33;;
8247;SDS011;4164;49.844;8.830;2022-08-19T03:36:22;24.23;;;19.47;;
8247;SDS011;4164;49.844;8.830;2022-08-19T03:38:51;25.33;;;19.57;;
8247;SDS011;4164;49.844;8.830;2022-08-19T03:41:20;23.77;;;19.67;;
8247;SDS011;4164;49.844;8.830;2022-08-19T03:43:48;27.00;;;19.20;;
8247;SDS011;4164;49.844;8.830;2022-08-19T03:46:15;26.77;;;20.13;;
8247;SDS011;4164;49.844;8.830;2022-08-19T03:48:45;26.07;;;18.97;;
8247;SDS011;4164;49.844;8.830;2022-08-19T03:51:18;23.60;;;19.53;;
8247;SDS011;4164;49.844;8.830;2022-08-19T03:53:47;25.83;;;19.20;;
8247;SDS011;4164;49.844;8.830;2022-08-19T03:56:14;23.43;;;18.33;;
8247;SDS011;4164;49.844;8.830;2022-08-19T03:58:40;25.47;;;19.20;;
8247;SDS011;4164;49.844;8.830;2022-08-19T04:01:07;22.07;;;17.70;;
8247;SDS011;4164;49.844;8.830;2022-08-19T04:03:37;24.57;;;18.27;;
8247;SDS011;4164;49.844;8.830;2022-08-19T04:06:16;26.60;;;18.53;;
8247;SDS011;4164;49.844;8.830;2022-08-19T04:08:46;25.60;;;18.70;;
8247;SDS011;4164;49.844;8.830;2022-08-19T04:11:15;23.33;;;18.33;;
8247;SDS011;4164;49.844;8.830;2022-08-19T04:13:42;23.70;;;17.77;;
8247;SDS011;4164;49.844;8.830;2022-08-19T04:16:09;21.53;;;17.23;;
8247;SDS011;4164;49.844;8.830;2022-08-19T04:18:36;22.33;;;17.67;;
8247;SDS011;4164;49.844;8.830;2022-08-19T04:21:03;21.50;;;17.70;;
8247;SDS011;4164;49.844;8.830;2022-08-19T04:23:29;24.27;;;17.13;;
8247;SDS011;4164;49.844;8.830;2022-08-19T04:25:55;22.80;;;18.27;;
8247;SDS011;4164;49.844;8.830;2022-08-19T04:28:21;23.27;;;19.30;;
8247;SDS011;4164;49.844;8.830;2022-08-19T04:30:48;20.67;;;17.97;;
8247;SDS011;4164;49.844;8.830;2022-08-19T04:33:16;22.13;;;18.43;;
8247;SDS011;4164;49.844;8.830;2022-08-19T04:35:45;21.20;;;18.00;;
8247;SDS011;4164;49.844;8.830;2022-08-19T04:38:13;24.30;;;17.97;;
8247;SDS011;4164;49.844;8.830;2022-08-19T04:40:41;24.27;;;18.00;;
8247;SDS011;4164;49.844;8.830;2022-08-19T04:43:26;21.90;;;17.43;;
8247;SDS011;4164;49.844;8.830;2022-08-19T04:45:52;24.37;;;18.30;;
8247;SDS011;4164;49.844;8.830;2022-08-19T04:48:18;21.77;;;17.70;;
8247;SDS011;4164;49.844;8.830;2022-08-19T04:50:50;21.73;;;17.07;;
8247;SDS011;4164;49.844;8.830;2022-08-19T04:53:23;23.70;;;17.17;;
8247;SDS011;4164;49.844;8.830;2022-08-19T04:55:50;22.27;;;17.57;;
8247;SDS011;4164;49.844;8.830;2022-08-19T04:58:16;20.07;;;16.93;;
8247;SDS011;4164;49.844;8.830;2022-08-19T05:00:42;23.87;;;16.80;;
8247;SDS011;4164;49.844;8.830;2022-08-19T05:03:08;21.43;;;16.37;;
8247;SDS011;4164;49.844;8.830;2022-08-19T05:05:38;21.20;;;16.47;;
8247;SDS011;4164;49.844;8.830;2022-08-19T05:08:06;20.10;;;15.43;;
8247;SDS011;4164;49.844;8.830;2022-08-19T05:10:34;22.87;;;16.13;;
8247;SDS011;4164;49.844;8.830;2022-08-19T05:13:01;21.50;;;15.57;;
8247;SDS011;4164;49.844;8.830;2022-08-19T05:15:26;21.10;;;15.70;;
8247;SDS011;4164;49.844;8.830;2022-08-19T05:17:52;21.57;;;17.30;;
8247;SDS011;4164;49.844;8.830;2022-08-19T05:20:37;23.80;;;17.07;;
8247;SDS011;4164;49.844;8.830;2022-08-19T05:23:22;21.17;;;16.40;;
8247;SDS011;4164;49.844;8.830;2022-08-19T05:25:47;20.87;;;15.70;;
8247;SDS011;4164;49.844;8.830;2022-08-19T05:28:13;21.77;;;16.63;;
8247;SDS011;4164;49.844;8.830;2022-08-19T05:30:39;21.30;;;15.93;;
8247;SDS011;4164;49.844;8.830;2022-08-19T05:33:06;18.97;;;15.37;;
8247;SDS011;4164;49.844;8.830;2022-08-19T05:35:35;19.67;;;15.50;;
8247;SDS011;4164;49.844;8.830;2022-08-19T05:38:02;19.83;;;15.50;;
8247;SDS011;4164;49.844;8.830;2022-08-19T05:40:28;20.60;;;16.23;;
8247;SDS011;4164;49.844;8.830;2022-08-19T05:42:54;19.83;;;15.67;;
8247;SDS011;4164;49.844;8.830;2022-08-19T05:45:19;18.53;;;15.70;;
8247;SDS011;4164;49.844;8.830;2022-08-19T05:47:46;18.33;;;15.63;;
8247;SDS011;4164;49.844;8.830;2022-08-19T05:50:12;17.10;;;14.30;;
8247;SDS011;4164;49.844;8.830;2022-08-19T05:52:38;17.80;;;14.53;;
8247;SDS011;4164;49.844;8.830;2022-08-19T05:55:04;17.63;;;14.13;;
8247;SDS011;4164;49.844;8.830;2022-08-19T05:57:30;18.17;;;13.50;;
8247;SDS011;4164;49.844;8.830;2022-08-19T05:59:56;16.43;;;14.50;;
8247;SDS011;4164;49.844;8.830;2022-08-19T06:02:22;16.60;;;14.73;;
8247;SDS011;4164;49.844;8.830;2022-08-19T06:04:48;18.27;;;13.87;;
8247;SDS011;4164;49.844;8.830;2022-08-19T06:07:14;17.60;;;13.63;;
8247;SDS011;4164;49.844;8.830;2022-08-19T06:09:40;18.33;;;14.13;;
8247;SDS011;4164;49.844;8.830;2022-08-19T06:12:06;17.03;;;13.17;;
8247;SDS011;4164;49.844;8.830;2022-08-19T06:14:33;14.50;;;12.17;;
8247;SDS011;4164;49.844;8.830;2022-08-19T06:17:00;14.70;;;12.63;;
8247;SDS011;4164;49.844;8.830;2022-08-19T06:19:27;16.03;;;12.43;;
8247;SDS011;4164;49.844;8.830;2022-08-19T06:21:57;14.53;;;11.47;;
8247;SDS011;4164;49.844;8.830;2022-08-19T06:24:24;16.73;;;12.43;;
8247;SDS011;4164;49.844;8.830;2022-08-19T06:26:53;15.13;;;12.13;;
8247;SDS011;4164;49.844;8.830;2022-08-19T06:29:20;16.13;;;11.27;;
8247;SDS011;4164;49.844;8.830;2022-08-19T06:31:49;16.00;;;11.73;;
8247;SDS011;4164;49.844;8.830;2022-08-19T06:34:16;12.87;;;11.33;;
8247;SDS011;4164;49.844;8.830;2022-08-19T06:36:44;15.83;;;11.37;;
8247;SDS011;4164;49.844;8.830;2022-08-19T06:39:13;17.23;;;11.67;;
8247;SDS011;4164;49.844;8.830;2022-08-19T06:41:42;15.33;;;11.83;;
8247;SDS011;4164;49.844;8.830;2022-08-19T06:44:10;14.03;;;11.00;;
8247;SDS011;4164;49.844;8.830;2022-08-19T06:46:36;16.87;;;11.23;;
8247;SDS011;4164;49.844;8.830;2022-08-19T06:49:03;12.50;;;11.20;;
8247;SDS011;4164;49.844;8.830;2022-08-19T06:51:29;12.50;;;10.67;;
8247;SDS011;4164;49.844;8.830;2022-08-19T06:53:56;14.00;;;10.57;;
8247;SDS011;4164;49.844;8.830;2022-08-19T06:56:23;14.50;;;10.57;;
8247;SDS011;4164;49.844;8.830;2022-08-19T06:58:56;14.63;;;11.30;;
8247;SDS011;4164;49.844;8.830;2022-08-19T07:01:21;12.73;;;11.00;;
8247;SDS011;4164;49.844;8.830;2022-08-19T07:03:47;13.10;;;10.43;;
8247;SDS011;4164;49.844;8.830;2022-08-19T07:06:14;11.73;;;9.97;;
8247;SDS011;4164;49.844;8.830;2022-08-19T07:08:43;13.60;;;10.43;;
8247;SDS011;4164;49.844;8.830;2022-08-19T07:11:10;12.97;;;10.13;;
8247;SDS011;4164;49.844;8.830;2022-08-19T07:13:37;16.03;;;10.77;;
8247;SDS011;4164;49.844;8.830;2022-08-19T07:16:07;15.50;;;11.07;;
8247;SDS011;4164;49.844;8.830;2022-08-19T07:18:34;13.03;;;9.50;;
8247;SDS011;4164;49.844;8.830;2022-08-19T07:21:07;14.03;;;10.30;;
8247;SDS011;4164;49.844;8.830;2022-08-19T07:23:34;11.40;;;9.53;;
8247;SDS011;4164;49.844;8.830;2022-08-19T07:26:07;18.23;;;10.43;;
8247;SDS011;4164;49.844;8.830;2022-08-19T07:28:44;12.03;;;9.87;;
8247;SDS011;4164;49.844;8.830;2022-08-19T07:31:15;12.90;;;9.70;;
8247;SDS011;4164;49.844;8.830;2022-08-19T07:33:43;12.80;;;10.33;;
8247;SDS011;4164;49.844;8.830;2022-08-19T07:36:11;16.97;;;10.13;;
8247;SDS011;4164;49.844;8.830;2022-08-19T07:38:39;12.40;;;9.20;;
8247;SDS011;4164;49.844;8.830;2022-08-19T07:41:06;10.23;;;9.17;;
8247;SDS011;4164;49.844;8.830;2022-08-19T07:43:34;12.77;;;9.80;;
8247;SDS011;4164;49.844;8.830;2022-08-19T07:45:59;13.87;;;9.67;;
8247;SDS011;4164;49.844;8.830;2022-08-19T07:48:25;15.80;;;10.27;;
8247;SDS011;4164;49.844;8.830;2022-08-19T07:50:52;14.23;;;10.97;;
8247;SDS011;4164;49.844;8.830;2022-08-19T07:53:19;13.53;;;10.50;;
8247;SDS011;4164;49.844;8.830;2022-08-19T07:55:47;13.93;;;10.47;;
8247;SDS011;4164;49.844;8.830;2022-08-19T07:58:14;12.87;;;10.30;;
8247;SDS011;4164;49.844;8.830;2022-08-19T08:00:43;17.17;;;10.13;;
8247;SDS011;4164;49.844;8.830;2022-08-19T08:03:10;13.97;;;9.40;;
8247;SDS011;4164;49.844;8.830;2022-08-19T08:05:37;14.23;;;9.90;;
8247;SDS011;4164;49.844;8.830;2022-08-19T08:08:21;12.07;;;8.93;;
8247;SDS011;4164;49.844;8.830;2022-08-19T08:10:56;11.77;;;9.10;;
8247;SDS011;4164;49.844;8.830;2022-08-19T08:13:22;10.47;;;8.60;;
8247;SDS011;4164;49.844;8.830;2022-08-19T08:15:47;11.20;;;9.47;;
8247;SDS011;4164;49.844;8.830;2022-08-19T08:18:13;9.83;;;7.90;;
8247;SDS011;4164;49.844;8.830;2022-08-19T08:20:38;10.57;;;8.17;;
8247;SDS011;4164;49.844;8.830;2022-08-19T08:23:04;10.83;;;7.93;;
8247;SDS011;4164;49.844;8.830;2022-08-19T08:25:49;9.50;;;8.50;;
8247;SDS011;4164;49.844;8.830;2022-08-19T08:28:17;10.43;;;8.50;;
8247;SDS011;4164;49.844;8.830;2022-08-19T08:30:44;10.07;;;8.27;;
8247;SDS011;4164;49.844;8.830;2022-08-19T08:33:12;11.63;;;8.17;;
8247;SDS011;4164;49.844;8.830;2022-08-19T08:35:39;8.70;;;6.93;;
8247;SDS011;4164;49.844;8.830;2022-08-19T08:38:07;12.70;;;7.47;;
8247;SDS011;4164;49.844;8.830;2022-08-19T08:45:59;10.23;;;7.77;;
8247;SDS011;4164;49.844;8.830;2022-08-19T08:51:03;8.30;;;6.13;;
8247;SDS011;4164;49.844;8.830;2022-08-19T08:53:33;9.70;;;6.10;;
8247;SDS011;4164;49.844;8.830;2022-08-19T08:56:01;8.07;;;6.47;;
8247;SDS011;4164;49.844;8.830;2022-08-19T08:58:36;7.33;;;6.63;;
8247;SDS011;4164;49.844;8.830;2022-08-19T09:01:16;6.83;;;6.13;;
8247;SDS011;4164;49.844;8.830;2022-08-19T09:03:42;7.43;;;5.70;;
8247;SDS011;4164;49.844;8.830;2022-08-19T09:14:15;11.50;;;5.77;;
8247;SDS011;4164;49.844;8.830;2022-08-19T09:16:53;7.43;;;5.20;;
8247;SDS011;4164;49.844;8.830;2022-08-19T09:19:18;6.63;;;5.73;;
8247;SDS011;4164;49.844;8.830;2022-08-19T09:21:44;6.23;;;4.67;;
8247;SDS011;4164;49.844;8.830;2022-08-19T09:24:10;5.97;;;4.30;;
8247;SDS011;4164;49.844;8.830;2022-08-19T09:26:37;8.30;;;4.40;;
8247;SDS011;4164;49.844;8.830;2022-08-19T09:29:02;5.90;;;4.20;;
8247;SDS011;4164;49.844;8.830;2022-08-19T09:31:31;4.57;;;4.17;;
8247;SDS011;4164;49.844;8.830;2022-08-19T09:33:57;4.50;;;4.17;;
8247;SDS011;4164;49.844;8.830;2022-08-19T09:36:25;5.97;;;5.13;;
8247;SDS011;4164;49.844;8.830;2022-08-19T09:38:54;6.83;;;5.67;;
8247;SDS011;4164;49.844;8.830;2022-08-19T09:41:22;5.20;;;4.60;;
8247;SDS011;4164;49.844;8.830;2022-08-19T09:43:50;4.63;;;3.90;;
8247;SDS011;4164;49.844;8.830;2022-08-19T09:46:17;6.73;;;4.10;;
8247;SDS011;4164;49.844;8.830;2022-08-19T09:48:45;4.63;;;4.07;;
8247;SDS011;4164;49.844;8.830;2022-08-19T09:51:13;4.73;;;3.90;;
8247;SDS011;4164;49.844;8.830;2022-08-19T09:53:43;9.93;;;4.13;;
8247;SDS011;4164;49.844;8.830;2022-08-19T09:56:10;4.73;;;3.90;;
8247;SDS011;4164;49.844;8.830;2022-08-19T09:58:36;4.80;;;4.00;;
8247;SDS011;4164;49.844;8.830;2022-08-19T10:01:03;4.10;;;3.77;;
8247;SDS011;4164;49.844;8.830;2022-08-19T10:03:30;4.40;;;4.00;;
8247;SDS011;4164;49.844;8.830;2022-08-19T10:05:57;4.23;;;3.83;;
8247;SDS011;4164;49.844;8.830;2022-08-19T10:08:26;5.10;;;3.77;;
8247;SDS011;4164;49.844;8.830;2022-08-19T10:10:54;6.83;;;4.80;;
8247;SDS011;4164;49.844;8.830;2022-08-19T10:13:21;5.93;;;4.33;;
8247;SDS011;4164;49.844;8.830;2022-08-19T10:15:51;5.70;;;4.40;;
8247;SDS011;4164;49.844;8.830;2022-08-19T10:18:19;4.63;;;3.87;;
8247;SDS011;4164;49.844;8.830;2022-08-19T10:20:46;6.10;;;4.53;;
8247;SDS011;4164;49.844;8.830;2022-08-19T10:23:13;5.73;;;4.30;;
8247;SDS011;4164;49.844;8.830;2022-08-19T10:25:40;6.03;;;4.47;;
8247;SDS011;4164;49.844;8.830;2022-08-19T10:28:06;5.33;;;4.33;;
8247;SDS011;4164;49.844;8.830;2022-08-19T10:30:32;5.17;;;4.67;;
8247;SDS011;4164;49.844;8.830;2022-08-19T10:32:58;5.37;;;4.30;;
8247;SDS011;4164;49.844;8.830;2022-08-19T10:35:24;4.40;;;4.00;;
8247;SDS011;4164;49.844;8.830;2022-08-19T10:37:52;6.47;;;4.17;;
8247;SDS011;4164;49.844;8.830;2022-08-19T10:40:18;4.20;;;3.80;;
8247;SDS011;4164;49.844;8.830;2022-08-19T10:42:43;7.17;;;3.90;;
8247;SDS011;4164;49.844;8.830;2022-08-19T10:45:09;4.77;;;3.70;;
8247;SDS011;4164;49.844;8.830;2022-08-19T10:47:35;4.00;;;3.60;;
8247;SDS011;4164;49.844;8.830;2022-08-19T10:50:01;4.70;;;3.83;;
8247;SDS011;4164;49.844;8.830;2022-08-19T10:52:46;6.90;;;3.70;;
8247;SDS011;4164;49.844;8.830;2022-08-19T10:55:13;3.93;;;3.57;;
8247;SDS011;4164;49.844;8.830;2022-08-19T10:57:57;5.20;;;3.87;;
8247;SDS011;4164;49.844;8.830;2022-08-19T11:00:23;3.67;;;3.37;;
8247;SDS011;4164;49.844;8.830;2022-08-19T11:02:50;4.93;;;3.70;;
8247;SDS011;4164;49.844;8.830;2022-08-19T11:05:16;7.23;;;4.23;;
8247;SDS011;4164;49.844;8.830;2022-08-19T11:07:43;4.63;;;4.20;;
8247;SDS011;4164;49.844;8.830;2022-08-19T11:10:10;6.67;;;4.30;;
8247;SDS011;4164;49.844;8.830;2022-08-19T11:12:38;5.67;;;4.30;;
8247;SDS011;4164;49.844;8.830;2022-08-19T11:15:08;5.10;;;4.57;;
8247;SDS011;4164;49.844;8.830;2022-08-19T11:17:35;7.00;;;4.50;;
8247;SDS011;4164;49.844;8.830;2022-08-19T11:20:08;5.47;;;4.23;;
8247;SDS011;4164;49.844;8.830;2022-08-19T11:22:38;4.57;;;3.70;;
8247;SDS011;4164;49.844;8.830;2022-08-19T11:25:04;4.80;;;4.40;;
8247;SDS011;4164;49.844;8.830;2022-08-19T11:27:30;4.63;;;4.23;;
8247;SDS011;4164;49.844;8.830;2022-08-19T11:29:55;4.60;;;4.17;;
8247;SDS011;4164;49.844;8.830;2022-08-19T11:32:25;6.53;;;5.40;;
8247;SDS011;4164;49.844;8.830;2022-08-19T11:34:51;5.10;;;4.60;;
8247;SDS011;4164;49.844;8.830;2022-08-19T11:37:17;7.70;;;5.40;;
8247;SDS011;4164;49.844;8.830;2022-08-19T11:39:42;9.40;;;5.37;;
8247;SDS011;4164;49.844;8.830;2022-08-19T11:42:08;5.93;;;5.43;;
8247;SDS011;4164;49.844;8.830;2022-08-19T11:44:52;6.80;;;5.37;;
8247;SDS011;4164;49.844;8.830;2022-08-19T11:47:18;6.73;;;6.00;;
8247;SDS011;4164;49.844;8.830;2022-08-19T11:49:45;5.63;;;4.67;;
8247;SDS011;4164;49.844;8.830;2022-08-19T11:52:11;6.13;;;5.53;;
8247;SDS011;4164;49.844;8.830;2022-08-19T11:54:36;5.83;;;5.33;;
8247;SDS011;4164;49.844;8.830;2022-08-19T11:57:03;6.57;;;5.67;;
8247;SDS011;4164;49.844;8.830;2022-08-19T11:59:29;5.40;;;4.90;;
8247;SDS011;4164;49.844;8.830;2022-08-19T12:01:54;4.77;;;4.47;;
8247;SDS011;4164;49.844;8.830;2022-08-19T12:04:21;5.90;;;5.17;;
8247;SDS011;4164;49.844;8.830;2022-08-19T12:06:47;7.27;;;5.50;;
8247;SDS011;4164;49.844;8.830;2022-08-19T12:09:13;5.30;;;4.80;;
8247;SDS011;4164;49.844;8.830;2022-08-19T12:11:40;5.63;;;5.13;;
8247;SDS011;4164;49.844;8.830;2022-08-19T12:14:06;6.00;;;5.40;;
8247;SDS011;4164;49.844;8.830;2022-08-19T12:16:34;6.07;;;5.50;;
8247;SDS011;4164;49.844;8.830;2022-08-19T12:19:00;5.77;;;5.27;;
8247;SDS011;4164;49.844;8.830;2022-08-19T12:21:29;5.90;;;5.30;;
8247;SDS011;4164;49.844;8.830;2022-08-19T12:23:57;5.70;;;5.20;;
8247;SDS011;4164;49.844;8.830;2022-08-19T12:26:24;5.90;;;5.40;;
8247;SDS011;4164;49.844;8.830;2022-08-19T12:28:51;6.47;;;5.70;;
8247;SDS011;4164;49.844;8.830;2022-08-19T12:31:17;6.20;;;5.70;;
8247;SDS011;4164;49.844;8.830;2022-08-19T12:33:44;8.53;;;5.57;;
8247;SDS011;4164;49.844;8.830;2022-08-19T12:36:11;6.43;;;5.60;;
8247;SDS011;4164;49.844;8.830;2022-08-19T12:38:38;6.37;;;5.80;;
8247;SDS011;4164;49.844;8.830;2022-08-19T12:41:04;8.17;;;6.53;;
8247;SDS011;4164;49.844;8.830;2022-08-19T12:43:32;6.70;;;6.07;;
8247;SDS011;4164;49.844;8.830;2022-08-19T12:45:59;6.80;;;6.20;;
8247;SDS011;4164;49.844;8.830;2022-08-19T12:48:25;6.67;;;6.03;;
8247;SDS011;4164;49.844;8.830;2022-08-19T12:50:50;7.43;;;6.70;;
8247;SDS011;4164;49.844;8.830;2022-08-19T12:53:19;8.07;;;7.27;;
8247;SDS011;4164;49.844;8.830;2022-08-19T12:55:44;7.97;;;7.27;;
8247;SDS011;4164;49.844;8.830;2022-08-19T12:58:11;7.83;;;7.13;;
8247;SDS011;4164;49.844;8.830;2022-08-19T13:00:37;8.20;;;7.40;;
8247;SDS011;4164;49.844;8.830;2022-08-19T13:03:03;8.50;;;7.70;;
8247;SDS011;4164;49.844;8.830;2022-08-19T13:05:30;8.60;;;7.90;;
8247;SDS011;4164;49.844;8.830;2022-08-19T13:07:58;7.27;;;6.63;;
8247;SDS011;4164;49.844;8.830;2022-08-19T13:10:25;8.43;;;7.73;;
8247;SDS011;4164;49.844;8.830;2022-08-19T13:12:53;8.03;;;7.27;;
8247;SDS011;4164;49.844;8.830;2022-08-19T13:15:19;9.00;;;7.57;;
8247;SDS011;4164;49.844;8.830;2022-08-19T13:17:47;9.43;;;8.63;;
8247;SDS011;4164;49.844;8.830;2022-08-19T13:20:14;10.27;;;9.17;;
8247;SDS011;4164;49.844;8.830;2022-08-19T13:22:41;9.60;;;8.60;;
8247;SDS011;4164;49.844;8.830;2022-08-19T13:25:07;10.30;;;9.40;;
8247;SDS011;4164;49.844;8.830;2022-08-19T13:27:33;9.63;;;8.70;;
8247;SDS011;4164;49.844;8.830;2022-08-19T13:30:00;11.50;;;8.73;;
8247;SDS011;4164;49.844;8.830;2022-08-19T13:32:45;9.10;;;8.30;;
8247;SDS011;4164;49.844;8.830;2022-08-19T13:35:29;9.83;;;8.83;;
8247;SDS011;4164;49.844;8.830;2022-08-19T13:37:54;10.00;;;9.10;;
8247;SDS011;4164;49.844;8.830;2022-08-19T13:40:21;10.43;;;9.43;;
8247;SDS011;4164;49.844;8.830;2022-08-19T13:42:50;10.50;;;9.53;;
8247;SDS011;4164;49.844;8.830;2022-08-19T13:45:18;9.63;;;8.73;;
8247;SDS011;4164;49.844;8.830;2022-08-19T13:47:46;9.43;;;8.47;;
8247;SDS011;4164;49.844;8.830;2022-08-19T13:50:13;9.13;;;8.30;;
8247;SDS011;4164;49.844;8.830;2022-08-19T13:52:40;8.77;;;7.87;;
8247;SDS011;4164;49.844;8.830;2022-08-19T13:55:07;8.00;;;7.30;;
8247;SDS011;4164;49.844;8.830;2022-08-19T13:57:34;8.23;;;7.43;;
8247;SDS011;4164;49.844;8.830;2022-08-19T13:59:59;8.67;;;7.87;;
8247;SDS011;4164;49.844;8.830;2022-08-19T14:02:26;7.90;;;7.27;;
8247;SDS011;4164;49.844;8.830;2022-08-19T14:04:52;8.33;;;7.53;;
8247;SDS011;4164;49.844;8.830;2022-08-19T14:07:17;8.13;;;7.43;;
8247;SDS011;4164;49.844;8.830;2022-08-19T14:09:43;7.70;;;7.00;;
8247;SDS011;4164;49.844;8.830;2022-08-19T14:12:08;6.90;;;6.30;;
8247;SDS011;4164;49.844;8.830;2022-08-19T14:14:37;6.97;;;6.37;;
8247;SDS011;4164;49.844;8.830;2022-08-19T14:17:07;6.70;;;6.20;;
8247;SDS011;4164;49.844;8.830;2022-08-19T14:19:34;7.43;;;6.20;;
8247;SDS011;4164;49.844;8.830;2022-08-19T14:22:00;6.40;;;5.90;;
8247;SDS011;4164;49.844;8.830;2022-08-19T14:24:26;6.00;;;5.50;;
8247;SDS011;4164;49.844;8.830;2022-08-19T14:26:52;6.53;;;6.03;;
8247;SDS011;4164;49.844;8.830;2022-08-19T14:29:17;6.03;;;5.47;;
8247;SDS011;4164;49.844;8.830;2022-08-19T14:31:43;7.73;;;6.43;;
8247;SDS011;4164;49.844;8.830;2022-08-19T14:34:09;6.70;;;6.13;;
8247;SDS011;4164;49.844;8.830;2022-08-19T14:36:36;7.37;;;6.67;;
8247;SDS011;4164;49.844;8.830;2022-08-19T14:39:02;6.40;;;5.80;;
8247;SDS011;4164;49.844;8.830;2022-08-19T14:41:29;6.90;;;6.13;;
8247;SDS011;4164;49.844;8.830;2022-08-19T14:43:55;5.97;;;5.47;;
8247;SDS011;4164;49.844;8.830;2022-08-19T14:46:23;5.60;;;5.07;;
8247;SDS011;4164;49.844;8.830;2022-08-19T14:48:50;6.47;;;5.50;;
8247;SDS011;4164;49.844;8.830;2022-08-19T14:51:17;5.27;;;4.77;;
8247;SDS011;4164;49.844;8.830;2022-08-19T14:53:44;5.63;;;4.60;;
8247;SDS011;4164;49.844;8.830;2022-08-19T14:56:11;6.63;;;5.30;;
8247;SDS011;4164;49.844;8.830;2022-08-19T14:58:39;5.43;;;4.90;;
8247;SDS011;4164;49.844;8.830;2022-08-19T15:01:06;5.70;;;5.17;;
8247;SDS011;4164;49.844;8.830;2022-08-19T15:03:32;5.90;;;5.40;;
8247;SDS011;4164;49.844;8.830;2022-08-19T15:06:03;5.70;;;5.17;;
8247;SDS011;4164;49.844;8.830;2022-08-19T15:08:29;5.30;;;4.80;;
8247;SDS011;4164;49.844;8.830;2022-08-19T15:10:57;5.77;;;4.80;;
8247;SDS011;4164;49.844;8.830;2022-08-19T15:13:24;5.00;;;4.50;;
8247;SDS011;4164;49.844;8.830;2022-08-19T15:15:51;5.20;;;4.80;;
8247;SDS011;4164;49.844;8.830;2022-08-19T15:18:17;5.10;;;4.63;;
8247;SDS011;4164;49.844;8.830;2022-08-19T15:20:45;5.83;;;4.67;;